sensor_id;sensor_type;location;lat;lon;timestamp;pressure;altitude;pressure_sealevel;temperature;humidity
11515;BME280;5814;41.936;25.556;2023-03-04T00:01:58;112497.60;;;-145.99;100.00
11515;BME280;5814;41.936;25.556;2023-03-04T00:04:25;112497.60;;;-145.99;100.00
11515;BME280;5814;41.936;25.556;2023-03-04T00:06:52;112497.60;;;-145.99;100.00
11515;BME280;5814;41.936;25.556;2023-03-04T00:09:19;112497.60;;;-145.99;100.00
11515;BME280;5814;41.936;25.556;2023-03-04T00:11:46;112497.60;;;-145.99;100.00
11515;BME280;5814;41.936;25.556;2023-03-04T00:14:14;112497.60;;;-145.99;100.00
11515;BME280;5814;41.936;25.556;2023-03-04T00:16:41;112497.60;;;-145.99;100.00
11515;BME280;5814;41.936;25.556;2023-03-04T00:19:08;112497.60;;;-145.99;100.00
11515;BME280;5814;41.936;25.556;2023-03-04T00:21:35;112497.60;;;-145.99;100.00
11515;BME280;5814;41.936;25.556;2023-03-04T00:24:02;112497.60;;;-145.99;100.00
11515;BME280;5814;41.936;25.556;2023-03-04T00:26:30;112497.60;;;-145.99;100.00
11515;BME280;5814;41.936;25.556;2023-03-04T00:28:57;112497.60;;;-145.99;100.00
11515;BME280;5814;41.936;25.556;2023-03-04T00:31:24;112497.60;;;-145.99;100.00
11515;BME280;5814;41.936;25.556;2023-03-04T00:33:51;112497.60;;;-145.99;100.00
11515;BME280;5814;41.936;25.556;2023-03-04T00:36:18;112497.60;;;-145.99;100.00
11515;BME280;5814;41.936;25.556;2023-03-04T00:38:45;112497.60;;;-145.99;100.00
11515;BME280;5814;41.936;25.556;2023-03-04T00:41:13;112497.60;;;-145.99;100.00
11515;BME280;5814;41.936;25.556;2023-03-04T00:43:40;112497.60;;;-145.99;100.00
11515;BME280;5814;41.936;25.556;2023-03-04T00:46:07;112497.60;;;-145.99;100.00
11515;BME280;5814;41.936;25.556;2023-03-04T00:48:34;112497.60;;;-145.99;100.00
11515;BME280;5814;41.936;25.556;2023-03-04T00:51:01;112497.60;;;-145.99;100.00
11515;BME280;5814;41.936;25.556;2023-03-04T00:53:29;112497.60;;;-145.99;100.00
11515;BME280;5814;41.936;25.556;2023-03-04T00:55:56;112497.60;;;-145.99;100.00
11515;BME280;5814;41.936;25.556;2023-03-04T00:58:23;112497.60;;;-145.99;100.00
11515;BME280;5814;41.936;25.556;2023-03-04T01:00:50;112497.60;;;-145.99;100.00
11515;BME280;5814;41.936;25.556;2023-03-04T01:03:17;112497.60;;;-145.99;100.00
11515;BME280;5814;41.936;25.556;2023-03-04T01:05:44;112497.60;;;-145.99;100.00
11515;BME280;5814;41.936;25.556;2023-03-04T01:08:12;112497.60;;;-145.99;100.00
11515;BME280;5814;41.936;25.556;2023-03-04T01:10:39;112497.60;;;-145.99;100.00
11515;BME280;5814;41.936;25.556;2023-03-04T01:13:06;112497.60;;;-145.99;100.00
11515;BME280;5814;41.936;25.556;2023-03-04T01:15:33;112497.60;;;-145.99;100.00
11515;BME280;5814;41.936;25.556;2023-03-04T01:18:01;112497.60;;;-145.99;100.00
11515;BME280;5814;41.936;25.556;2023-03-04T01:20:28;112497.60;;;-145.99;100.00
11515;BME280;5814;41.936;25.556;2023-03-04T01:22:55;112497.60;;;-145.99;100.00
11515;BME280;5814;41.936;25.556;2023-03-04T01:25:22;112497.60;;;-145.99;100.00
11515;BME280;5814;41.936;25.556;2023-03-04T01:27:49;112497.60;;;-145.99;100.00
11515;BME280;5814;41.936;25.556;2023-03-04T01:30:17;112497.60;;;-145.99;100.00
11515;BME280;5814;41.936;25.556;2023-03-04T01:32:44;112497.60;;;-145.99;100.00
11515;BME280;5814;41.936;25.556;2023-03-04T01:35:11;112497.60;;;-145.99;100.00
11515;BME280;5814;41.936;25.556;2023-03-04T01:37:38;112497.60;;;-145.99;100.00
11515;BME280;5814;41.936;25.556;2023-03-04T01:40:06;112497.60;;;-145.99;100.00
11515;BME280;5814;41.936;25.556;2023-03-04T01:42:34;112497.60;;;-145.99;100.00
11515;BME280;5814;41.936;25.556;2023-03-04T01:45:01;112497.60;;;-145.99;100.00
11515;BME280;5814;41.936;25.556;2023-03-04T01:47:29;112497.60;;;-145.99;100.00
11515;BME280;5814;41.936;25.556;2023-03-04T01:49:56;112497.60;;;-145.99;100.00
11515;BME280;5814;41.936;25.556;2023-03-04T01:52:23;112497.60;;;-145.99;100.00
11515;BME280;5814;41.936;25.556;2023-03-04T01:54:50;112497.60;;;-145.99;100.00
11515;BME280;5814;41.936;25.556;2023-03-04T01:57:19;112497.60;;;-145.99;100.00
11515;BME280;5814;41.936;25.556;2023-03-04T01:59:46;112497.60;;;-145.99;100.00
11515;BME280;5814;41.936;25.556;2023-03-04T02:02:12;112497.60;;;-145.99;100.00
11515;BME280;5814;41.936;25.556;2023-03-04T02:04:39;112497.60;;;-145.99;100.00
11515;BME280;5814;41.936;25.556;2023-03-04T02:07:07;112497.60;;;-145.99;100.00
11515;BME280;5814;41.936;25.556;2023-03-04T02:09:34;112497.60;;;-145.99;100.00
11515;BME280;5814;41.936;25.556;2023-03-04T02:12:01;112497.60;;;-145.99;100.00
11515;BME280;5814;41.936;25.556;2023-03-04T02:14:28;112497.60;;;-145.99;100.00
11515;BME280;5814;41.936;25.556;2023-03-04T02:16:56;112497.60;;;-145.99;100.00
11515;BME280;5814;41.936;25.556;2023-03-04T02:19:48;112497.60;;;-145.99;100.00
11515;BME280;5814;41.936;25.556;2023-03-04T02:22:13;112497.60;;;-145.99;100.00
11515;BME280;5814;41.936;25.556;2023-03-04T02:24:42;112497.60;;;-145.99;100.00
11515;BME280;5814;41.936;25.556;2023-03-04T02:27:09;112497.60;;;-145.99;100.00
11515;BME280;5814;41.936;25.556;2023-03-04T02:29:36;112497.60;;;-145.99;100.00
11515;BME280;5814;41.936;25.556;2023-03-04T02:32:03;112497.60;;;-145.99;100.00
11515;BME280;5814;41.936;25.556;2023-03-04T02:34:32;112497.60;;;-145.99;100.00
11515;BME280;5814;41.936;25.556;2023-03-04T02:36:58;112497.60;;;-145.99;100.00
11515;BME280;5814;41.936;25.556;2023-03-04T02:39:29;112497.60;;;-145.99;100.00
11515;BME280;5814;41.936;25.556;2023-03-04T02:41:54;112497.60;;;-145.99;100.00
11515;BME280;5814;41.936;25.556;2023-03-04T02:44:28;112497.60;;;-145.99;100.00
11515;BME280;5814;41.936;25.556;2023-03-04T02:46:55;112497.60;;;-145.99;100.00
11515;BME280;5814;41.936;25.556;2023-03-04T02:49:22;112497.60;;;-145.99;100.00
11515;BME280;5814;41.936;25.556;2023-03-04T02:51:52;112497.60;;;-145.99;100.00
11515;BME280;5814;41.936;25.556;2023-03-04T02:54:20;112497.60;;;-145.99;100.00
11515;BME280;5814;41.936;25.556;2023-03-04T02:56:47;112497.60;;;-145.99;100.00
11515;BME280;5814;41.936;25.556;2023-03-04T02:59:13;112497.60;;;-145.99;100.00
11515;BME280;5814;41.936;25.556;2023-03-04T03:01:40;112497.60;;;-145.99;100.00
11515;BME280;5814;41.936;25.556;2023-03-04T03:04:07;112497.60;;;-145.99;100.00
11515;BME280;5814;41.936;25.556;2023-03-04T03:06:35;112497.60;;;-145.99;100.00
11515;BME280;5814;41.936;25.556;2023-03-04T03:09:02;112497.60;;;-145.99;100.00
11515;BME280;5814;41.936;25.556;2023-03-04T03:11:29;112497.60;;;-145.99;100.00
11515;BME280;5814;41.936;25.556;2023-03-04T03:13:56;112497.60;;;-145.99;100.00
11515;BME280;5814;41.936;25.556;2023-03-04T03:16:23;112497.60;;;-145.99;100.00
11515;BME280;5814;41.936;25.556;2023-03-04T03:18:50;112497.60;;;-145.99;100.00
11515;BME280;5814;41.936;25.556;2023-03-04T03:21:17;112497.60;;;-145.99;100.00
11515;BME280;5814;41.936;25.556;2023-03-04T03:23:45;112497.60;;;-145.99;100.00
11515;BME280;5814;41.936;25.556;2023-03-04T03:26:12;112497.60;;;-145.99;100.00
11515;BME280;5814;41.936;25.556;2023-03-04T03:28:39;112497.60;;;-145.99;100.00
11515;BME280;5814;41.936;25.556;2023-03-04T03:31:06;112497.60;;;-145.99;100.00
11515;BME280;5814;41.936;25.556;2023-03-04T03:33:33;112497.60;;;-145.99;100.00
11515;BME280;5814;41.936;25.556;2023-03-04T03:36:01;112497.60;;;-145.99;100.00
11515;BME280;5814;41.936;25.556;2023-03-04T03:38:28;112497.60;;;-145.99;100.00
11515;BME280;5814;41.936;25.556;2023-03-04T03:40:55;112497.60;;;-145.99;100.00
11515;BME280;5814;41.936;25.556;2023-03-04T03:43:22;112497.60;;;-145.99;100.00
11515;BME280;5814;41.936;25.556;2023-03-04T03:45:49;112497.60;;;-145.99;100.00
11515;BME280;5814;41.936;25.556;2023-03-04T03:48:17;112497.60;;;-145.99;100.00
11515;BME280;5814;41.936;25.556;2023-03-04T03:50:44;112497.60;;;-145.99;100.00
11515;BME280;5814;41.936;25.556;2023-03-04T03:53:11;112497.60;;;-145.99;100.00
11515;BME280;5814;41.936;25.556;2023-03-04T03:55:38;112497.60;;;-145.99;100.00
11515;BME280;5814;41.936;25.556;2023-03-04T03:58:05;112497.60;;;-145.99;100.00
11515;BME280;5814;41.936;25.556;2023-03-04T04:00:32;112497.60;;;-145.99;100.00
11515;BME280;5814;41.936;25.556;2023-03-04T04:03:00;112497.60;;;-145.99;100.00
11515;BME280;5814;41.936;25.556;2023-03-04T04:05:27;112497.60;;;-145.99;100.00
11515;BME280;5814;41.936;25.556;2023-03-04T04:07:54;112497.60;;;-145.99;100.00
11515;BME280;5814;41.936;25.556;2023-03-04T04:10:21;112497.60;;;-145.99;100.00
11515;BME280;5814;41.936;25.556;2023-03-04T04:12:48;112497.60;;;-145.99;100.00
11515;BME280;5814;41.936;25.556;2023-03-04T04:15:16;112497.60;;;-145.99;100.00
11515;BME280;5814;41.936;25.556;2023-03-04T04:17:43;112497.60;;;-145.99;100.00
11515;BME280;5814;41.936;25.556;2023-03-04T04:20:10;112497.60;;;-145.99;100.00
11515;BME280;5814;41.936;25.556;2023-03-04T04:22:37;112497.60;;;-145.99;100.00
11515;BME280;5814;41.936;25.556;2023-03-04T04:25:05;112497.60;;;-145.99;100.00
11515;BME280;5814;41.936;25.556;2023-03-04T04:27:33;112497.60;;;-145.99;100.00
11515;BME280;5814;41.936;25.556;2023-03-04T04:30:00;112497.60;;;-145.99;100.00
11515;BME280;5814;41.936;25.556;2023-03-04T04:32:27;112497.60;;;-145.99;100.00
11515;BME280;5814;41.936;25.556;2023-03-04T04:34:54;112497.60;;;-145.99;100.00
11515;BME280;5814;41.936;25.556;2023-03-04T04:37:21;112497.60;;;-145.99;100.00
11515;BME280;5814;41.936;25.556;2023-03-04T04:39:49;112497.60;;;-145.99;100.00
11515;BME280;5814;41.936;25.556;2023-03-04T04:42:16;112497.60;;;-145.99;100.00
11515;BME280;5814;41.936;25.556;2023-03-04T04:44:43;112497.60;;;-145.99;100.00
11515;BME280;5814;41.936;25.556;2023-03-04T04:47:10;112497.60;;;-145.99;100.00
11515;BME280;5814;41.936;25.556;2023-03-04T04:49:37;112497.60;;;-145.99;100.00
11515;BME280;5814;41.936;25.556;2023-03-04T04:52:05;112497.60;;;-145.99;100.00
11515;BME280;5814;41.936;25.556;2023-03-04T04:54:32;112497.60;;;-145.99;100.00
11515;BME280;5814;41.936;25.556;2023-03-04T04:56:59;112497.60;;;-145.99;100.00
11515;BME280;5814;41.936;25.556;2023-03-04T04:59:26;112497.60;;;-145.99;100.00
11515;BME280;5814;41.936;25.556;2023-03-04T05:01:54;112497.60;;;-145.99;100.00
11515;BME280;5814;41.936;25.556;2023-03-04T05:04:21;112497.60;;;-145.99;100.00
11515;BME280;5814;41.936;25.556;2023-03-04T05:06:48;112497.60;;;-145.99;100.00
11515;BME280;5814;41.936;25.556;2023-03-04T05:09:15;112497.60;;;-145.99;100.00
11515;BME280;5814;41.936;25.556;2023-03-04T05:11:43;112497.60;;;-145.99;100.00
11515;BME280;5814;41.936;25.556;2023-03-04T05:14:10;112497.60;;;-145.99;100.00
11515;BME280;5814;41.936;25.556;2023-03-04T05:16:37;99296.39;;;3.61;100.00
11515;BME280;5814;41.936;25.556;2023-03-04T05:19:04;112497.60;;;-145.99;100.00
11515;BME280;5814;41.936;25.556;2023-03-04T05:21:31;112497.60;;;-145.99;100.00
11515;BME280;5814;41.936;25.556;2023-03-04T05:23:58;112497.60;;;-145.99;100.00
11515;BME280;5814;41.936;25.556;2023-03-04T05:26:26;99300.77;;;3.82;100.00
11515;BME280;5814;41.936;25.556;2023-03-04T05:28:53;112497.60;;;-145.99;100.00
11515;BME280;5814;41.936;25.556;2023-03-04T05:31:20;99298.64;;;3.90;100.00
11515;BME280;5814;41.936;25.556;2023-03-04T05:33:47;99303.71;;;3.57;100.00
11515;BME280;5814;41.936;25.556;2023-03-04T05:36:14;99302.36;;;3.44;100.00
11515;BME280;5814;41.936;25.556;2023-03-04T05:38:41;99313.92;;;3.37;100.00
11515;BME280;5814;41.936;25.556;2023-03-04T05:41:09;99314.48;;;3.59;100.00
11515;BME280;5814;41.936;25.556;2023-03-04T05:43:36;99307.27;;;3.90;100.00
11515;BME280;5814;41.936;25.556;2023-03-04T05:46:03;99302.59;;;4.22;100.00
11515;BME280;5814;41.936;25.556;2023-03-04T05:48:30;99302.58;;;4.45;100.00
11515;BME280;5814;41.936;25.556;2023-03-04T05:50:59;99302.58;;;4.71;100.00
11515;BME280;5814;41.936;25.556;2023-03-04T05:53:25;99312.48;;;4.62;100.00
11515;BME280;5814;41.936;25.556;2023-03-04T05:55:52;99304.30;;;4.35;100.00
11515;BME280;5814;41.936;25.556;2023-03-04T05:58:19;99313.38;;;4.57;100.00
11515;BME280;5814;41.936;25.556;2023-03-04T06:00:46;99309.93;;;4.65;100.00
11515;BME280;5814;41.936;25.556;2023-03-04T06:03:21;99316.37;;;4.71;100.00
11515;BME280;5814;41.936;25.556;2023-03-04T06:05:48;99314.64;;;4.74;100.00
11515;BME280;5814;41.936;25.556;2023-03-04T06:08:16;99321.95;;;4.81;100.00
11515;BME280;5814;41.936;25.556;2023-03-04T06:10:43;99318.09;;;4.42;100.00
11515;BME280;5814;41.936;25.556;2023-03-04T06:13:10;99316.75;;;4.00;100.00
11515;BME280;5814;41.936;25.556;2023-03-04T06:15:38;99322.81;;;4.35;100.00
11515;BME280;5814;41.936;25.556;2023-03-04T06:18:05;99319.39;;;4.59;100.00
11515;BME280;5814;41.936;25.556;2023-03-04T06:20:31;99321.52;;;4.76;100.00
11515;BME280;5814;41.936;25.556;2023-03-04T06:22:59;99327.58;;;4.79;100.00
11515;BME280;5814;41.936;25.556;2023-03-04T06:25:26;99321.09;;;4.78;100.00
11515;BME280;5814;41.936;25.556;2023-03-04T06:27:53;99322.79;;;5.11;100.00
11515;BME280;5814;41.936;25.556;2023-03-04T06:30:20;99315.93;;;4.89;100.00
11515;BME280;5814;41.936;25.556;2023-03-04T06:32:47;99318.48;;;5.15;100.00
11515;BME280;5814;41.936;25.556;2023-03-04T06:35:15;99323.64;;;5.07;100.00
11515;BME280;5814;41.936;25.556;2023-03-04T06:37:42;99316.33;;;5.11;100.00
11515;BME280;5814;41.936;25.556;2023-03-04T06:40:10;99329.72;;;4.85;100.00
11515;BME280;5814;41.936;25.556;2023-03-04T06:42:37;99332.27;;;5.06;100.00
11515;BME280;5814;41.936;25.556;2023-03-04T06:45:05;99333.94;;;5.39;100.00
11515;BME280;5814;41.936;25.556;2023-03-04T06:47:32;99349.88;;;5.31;100.00
11515;BME280;5814;41.936;25.556;2023-03-04T06:49:59;99333.12;;;5.22;100.00
11515;BME280;5814;41.936;25.556;2023-03-04T06:52:26;99335.56;;;5.60;100.00
11515;BME280;5814;41.936;25.556;2023-03-04T06:54:54;99342.84;;;5.78;100.00
11515;BME280;5814;41.936;25.556;2023-03-04T06:57:21;99343.30;;;5.71;100.00
11515;BME280;5814;41.936;25.556;2023-03-04T06:59:48;99345.89;;;5.71;100.00
11515;BME280;5814;41.936;25.556;2023-03-04T07:02:15;99335.96;;;5.69;100.00
11515;BME280;5814;41.936;25.556;2023-03-04T07:04:42;99335.53;;;5.69;100.00
11515;BME280;5814;41.936;25.556;2023-03-04T07:07:10;99333.44;;;5.55;100.00
11515;BME280;5814;41.936;25.556;2023-03-04T07:09:37;99342.37;;;5.95;100.00
11515;BME280;5814;41.936;25.556;2023-03-04T07:12:04;99337.16;;;5.99;100.00
11515;BME280;5814;41.936;25.556;2023-03-04T07:14:31;99339.30;;;5.94;100.00
11515;BME280;5814;41.936;25.556;2023-03-04T07:16:58;99332.81;;;6.03;100.00
11515;BME280;5814;41.936;25.556;2023-03-04T07:19:26;99330.05;;;6.31;100.00
11515;BME280;5814;41.936;25.556;2023-03-04T07:21:53;99324.63;;;6.00;100.00
11515;BME280;5814;41.936;25.556;2023-03-04T07:24:20;99347.09;;;5.98;100.00
11515;BME280;5814;41.936;25.556;2023-03-04T07:26:47;99346.97;;;6.23;100.00
11515;BME280;5814;41.936;25.556;2023-03-04T07:29:14;99345.19;;;6.30;100.00
11515;BME280;5814;41.936;25.556;2023-03-04T07:31:42;99336.66;;;6.74;100.00
11515;BME280;5814;41.936;25.556;2023-03-04T07:34:09;99341.55;;;7.07;100.00
11515;BME280;5814;41.936;25.556;2023-03-04T07:36:36;99328.11;;;7.49;100.00
11515;BME280;5814;41.936;25.556;2023-03-04T07:39:03;99338.55;;;7.44;100.00
11515;BME280;5814;41.936;25.556;2023-03-04T07:41:30;99322.28;;;7.69;100.00
11515;BME280;5814;41.936;25.556;2023-03-04T07:43:58;99325.52;;;7.85;100.00
11515;BME280;5814;41.936;25.556;2023-03-04T07:46:25;99319.67;;;7.68;100.00
11515;BME280;5814;41.936;25.556;2023-03-04T07:48:53;99314.89;;;7.70;100.00
11515;BME280;5814;41.936;25.556;2023-03-04T07:51:20;99310.24;;;7.94;100.00
11515;BME280;5814;41.936;25.556;2023-03-04T07:53:47;99303.73;;;8.27;100.00
11515;BME280;5814;41.936;25.556;2023-03-04T07:56:15;99308.59;;;8.19;100.00
11515;BME280;5814;41.936;25.556;2023-03-04T07:58:41;99317.41;;;8.39;100.00
11515;BME280;5814;41.936;25.556;2023-03-04T08:01:09;99308.50;;;8.82;100.00
11515;BME280;5814;41.936;25.556;2023-03-04T08:03:35;99314.36;;;8.94;100.00
11515;BME280;5814;41.936;25.556;2023-03-04T08:06:04;99317.00;;;9.16;100.00
11515;BME280;5814;41.936;25.556;2023-03-04T08:08:31;99317.84;;;9.18;100.00
11515;BME280;5814;41.936;25.556;2023-03-04T08:10:58;99327.34;;;9.19;100.00
11515;BME280;5814;41.936;25.556;2023-03-04T08:13:25;99322.19;;;9.18;100.00
11515;BME280;5814;41.936;25.556;2023-03-04T08:15:54;99324.23;;;9.68;100.00
11515;BME280;5814;41.936;25.556;2023-03-04T08:18:19;99313.24;;;9.74;100.00
11515;BME280;5814;41.936;25.556;2023-03-04T08:20:47;99325.38;;;9.77;100.00
11515;BME280;5814;41.936;25.556;2023-03-04T08:23:14;99324.09;;;9.96;100.00
11515;BME280;5814;41.936;25.556;2023-03-04T08:25:41;99332.08;;;9.88;100.00
11515;BME280;5814;41.936;25.556;2023-03-04T08:28:08;99324.91;;;10.19;100.00
11515;BME280;5814;41.936;25.556;2023-03-04T08:30:35;99329.21;;;10.41;100.00
11515;BME280;5814;41.936;25.556;2023-03-04T08:33:02;99332.22;;;10.60;100.00
11515;BME280;5814;41.936;25.556;2023-03-04T08:35:30;99336.97;;;10.80;100.00
11515;BME280;5814;41.936;25.556;2023-03-04T08:37:57;99303.06;;;11.45;100.00
11515;BME280;5814;41.936;25.556;2023-03-04T08:40:24;99327.22;;;11.84;100.00
11515;BME280;5814;41.936;25.556;2023-03-04T08:42:51;99325.12;;;12.26;100.00
11515;BME280;5814;41.936;25.556;2023-03-04T08:45:18;99326.45;;;12.66;100.00
11515;BME280;5814;41.936;25.556;2023-03-04T08:47:46;99311.84;;;12.86;100.00
11515;BME280;5814;41.936;25.556;2023-03-04T08:50:13;99309.48;;;12.79;100.00
11515;BME280;5814;41.936;25.556;2023-03-04T08:52:40;99304.27;;;13.30;100.00
11515;BME280;5814;41.936;25.556;2023-03-04T08:55:07;99302.42;;;13.19;100.00
11515;BME280;5814;41.936;25.556;2023-03-04T08:57:35;99303.02;;;13.41;95.65
11515;BME280;5814;41.936;25.556;2023-03-04T09:00:03;112497.60;;;-145.99;100.00
11515;BME280;5814;41.936;25.556;2023-03-04T09:02:30;99307.77;;;13.29;91.41
11515;BME280;5814;41.936;25.556;2023-03-04T09:04:57;112497.60;;;-145.99;100.00
11515;BME280;5814;41.936;25.556;2023-03-04T09:07:25;112497.60;;;-145.99;100.00
11515;BME280;5814;41.936;25.556;2023-03-04T09:09:52;112497.60;;;-145.99;100.00
11515;BME280;5814;41.936;25.556;2023-03-04T09:12:19;112497.60;;;-145.99;100.00
11515;BME280;5814;41.936;25.556;2023-03-04T09:14:46;112497.60;;;-145.99;100.00
11515;BME280;5814;41.936;25.556;2023-03-04T09:17:13;112497.60;;;-145.99;100.00
11515;BME280;5814;41.936;25.556;2023-03-04T09:19:40;112497.60;;;-145.99;100.00
11515;BME280;5814;41.936;25.556;2023-03-04T09:22:08;112497.60;;;-145.99;100.00
11515;BME280;5814;41.936;25.556;2023-03-04T09:24:35;112497.60;;;-145.99;100.00
11515;BME280;5814;41.936;25.556;2023-03-04T09:27:02;112497.60;;;-145.99;100.00
11515;BME280;5814;41.936;25.556;2023-03-04T09:29:29;112497.60;;;-145.99;100.00
11515;BME280;5814;41.936;25.556;2023-03-04T09:31:56;112497.60;;;-145.99;100.00
11515;BME280;5814;41.936;25.556;2023-03-04T09:34:24;112497.60;;;-145.99;100.00
11515;BME280;5814;41.936;25.556;2023-03-04T09:36:51;112497.60;;;-145.99;100.00
11515;BME280;5814;41.936;25.556;2023-03-04T09:39:18;112497.60;;;-145.99;100.00
11515;BME280;5814;41.936;25.556;2023-03-04T09:41:48;112497.60;;;-145.99;100.00
11515;BME280;5814;41.936;25.556;2023-03-04T09:44:21;112497.60;;;-145.99;100.00
11515;BME280;5814;41.936;25.556;2023-03-04T09:46:47;112497.60;;;-145.99;100.00
11515;BME280;5814;41.936;25.556;2023-03-04T09:49:14;112497.60;;;-145.99;100.00
11515;BME280;5814;41.936;25.556;2023-03-04T09:51:48;112497.60;;;-145.99;100.00
11515;BME280;5814;41.936;25.556;2023-03-04T09:54:16;112497.60;;;-145.99;100.00
11515;BME280;5814;41.936;25.556;2023-03-04T09:56:41;112497.60;;;-145.99;100.00
11515;BME280;5814;41.936;25.556;2023-03-04T09:59:16;112497.60;;;-145.99;100.00
11515;BME280;5814;41.936;25.556;2023-03-04T10:01:47;112497.60;;;-145.99;100.00
11515;BME280;5814;41.936;25.556;2023-03-04T10:04:15;112497.60;;;-145.99;100.00
11515;BME280;5814;41.936;25.556;2023-03-04T10:06:40;112497.60;;;-145.99;100.00
11515;BME280;5814;41.936;25.556;2023-03-04T10:09:15;112497.60;;;-145.99;100.00
11515;BME280;5814;41.936;25.556;2023-03-04T10:11:45;112497.60;;;-145.99;100.00
11515;BME280;5814;41.936;25.556;2023-03-04T10:14:32;112497.60;;;-145.99;100.00
11515;BME280;5814;41.936;25.556;2023-03-04T10:17:16;112497.60;;;-145.99;100.00
11515;BME280;5814;41.936;25.556;2023-03-04T10:19:53;112497.60;;;-145.99;100.00
11515;BME280;5814;41.936;25.556;2023-03-04T10:22:42;112497.60;;;-145.99;100.00
11515;BME280;5814;41.936;25.556;2023-03-04T10:25:18;112497.60;;;-145.99;100.00
11515;BME280;5814;41.936;25.556;2023-03-04T10:27:48;112497.60;;;-145.99;100.00
11515;BME280;5814;41.936;25.556;2023-03-04T10:30:18;112497.60;;;-145.99;100.00
11515;BME280;5814;41.936;25.556;2023-03-04T10:32:44;112497.60;;;-145.99;100.00
11515;BME280;5814;41.936;25.556;2023-03-04T10:35:11;112497.60;;;-145.99;100.00
11515;BME280;5814;41.936;25.556;2023-03-04T10:37:45;112497.60;;;-145.99;100.00
11515;BME280;5814;41.936;25.556;2023-03-04T10:40:22;112497.60;;;-145.99;100.00
11515;BME280;5814;41.936;25.556;2023-03-04T10:42:48;112497.60;;;-145.99;100.00
11515;BME280;5814;41.936;25.556;2023-03-04T10:45:20;112497.60;;;-145.99;100.00
11515;BME280;5814;41.936;25.556;2023-03-04T10:47:53;112497.60;;;-145.99;100.00
11515;BME280;5814;41.936;25.556;2023-03-04T10:50:23;112497.60;;;-145.99;100.00
11515;BME280;5814;41.936;25.556;2023-03-04T10:52:49;112497.60;;;-145.99;100.00
11515;BME280;5814;41.936;25.556;2023-03-04T10:55:18;112497.60;;;-145.99;100.00
11515;BME280;5814;41.936;25.556;2023-03-04T10:57:44;112497.60;;;-145.99;100.00
11515;BME280;5814;41.936;25.556;2023-03-04T11:00:22;112497.60;;;-145.99;100.00
11515;BME280;5814;41.936;25.556;2023-03-04T11:02:46;112497.60;;;-145.99;100.00
11515;BME280;5814;41.936;25.556;2023-03-04T11:05:18;112497.60;;;-145.99;100.00
11515;BME280;5814;41.936;25.556;2023-03-04T11:07:53;112497.60;;;-145.99;100.00
11515;BME280;5814;41.936;25.556;2023-03-04T11:10:22;112497.60;;;-145.99;100.00
11515;BME280;5814;41.936;25.556;2023-03-04T11:12:51;112497.60;;;-145.99;100.00
11515;BME280;5814;41.936;25.556;2023-03-04T11:15:19;112497.60;;;-145.99;100.00
11515;BME280;5814;41.936;25.556;2023-03-04T11:17:47;112497.60;;;-145.99;100.00
11515;BME280;5814;41.936;25.556;2023-03-04T11:22:49;112497.60;;;-145.99;100.00
11515;BME280;5814;41.936;25.556;2023-03-04T11:25:33;112497.60;;;-145.99;100.00
11515;BME280;5814;41.936;25.556;2023-03-04T11:28:00;112497.60;;;-145.99;100.00
11515;BME280;5814;41.936;25.556;2023-03-04T11:30:32;112497.60;;;-145.99;100.00
11515;BME280;5814;41.936;25.556;2023-03-04T11:33:02;112497.60;;;-145.99;100.00
11515;BME280;5814;41.936;25.556;2023-03-04T11:35:30;112497.60;;;-145.99;100.00
11515;BME280;5814;41.936;25.556;2023-03-04T11:38:01;112497.60;;;-145.99;100.00
11515;BME280;5814;41.936;25.556;2023-03-04T11:40:35;112497.60;;;-145.99;100.00
11515;BME280;5814;41.936;25.556;2023-03-04T11:43:08;112497.60;;;-145.99;100.00
11515;BME280;5814;41.936;25.556;2023-03-04T11:45:43;112497.60;;;-145.99;100.00
11515;BME280;5814;41.936;25.556;2023-03-04T11:48:22;112497.60;;;-145.99;100.00
11515;BME280;5814;41.936;25.556;2023-03-04T11:50:50;112497.60;;;-145.99;100.00
11515;BME280;5814;41.936;25.556;2023-03-04T11:53:22;112497.60;;;-145.99;100.00
11515;BME280;5814;41.936;25.556;2023-03-04T11:56:02;112497.60;;;-145.99;100.00
11515;BME280;5814;41.936;25.556;2023-03-04T11:58:48;112497.60;;;-145.99;100.00
11515;BME280;5814;41.936;25.556;2023-03-04T12:02:21;112497.60;;;-145.99;100.00
11515;BME280;5814;41.936;25.556;2023-03-04T12:04:15;112497.60;;;-145.99;100.00
11515;BME280;5814;41.936;25.556;2023-03-04T12:09:41;112497.60;;;-145.99;100.00
11515;BME280;5814;41.936;25.556;2023-03-04T12:12:22;112497.60;;;-145.99;100.00
11515;BME280;5814;41.936;25.556;2023-03-04T12:15:19;112497.60;;;-145.99;100.00
11515;BME280;5814;41.936;25.556;2023-03-04T12:18:15;112497.60;;;-145.99;100.00
11515;BME280;5814;41.936;25.556;2023-03-04T12:20:52;112497.60;;;-145.99;100.00
11515;BME280;5814;41.936;25.556;2023-03-04T12:23:25;112497.60;;;-145.99;100.00
11515;BME280;5814;41.936;25.556;2023-03-04T12:25:53;112497.60;;;-145.99;100.00
11515;BME280;5814;41.936;25.556;2023-03-04T12:28:22;112497.60;;;-145.99;100.00
11515;BME280;5814;41.936;25.556;2023-03-04T12:30:58;112497.60;;;-145.99;100.00
11515;BME280;5814;41.936;25.556;2023-03-04T12:33:25;112497.60;;;-145.99;100.00
11515;BME280;5814;41.936;25.556;2023-03-04T12:36:04;112497.60;;;-145.99;100.00
11515;BME280;5814;41.936;25.556;2023-03-04T12:38:57;112497.60;;;-145.99;100.00
11515;BME280;5814;41.936;25.556;2023-03-04T12:41:28;112497.60;;;-145.99;100.00
11515;BME280;5814;41.936;25.556;2023-03-04T12:43:56;112497.60;;;-145.99;100.00